sensor_id;sensor_type;location;lat;lon;timestamp;P1;durP1;ratioP1;P2;durP2;ratioP2
2622;SDS011;1321;48.690;9.022;2022-07-10T00:00:08;3.30;;;2.97;;
2622;SDS011;1321;48.690;9.022;2022-07-10T00:02:37;2.47;;;2.30;;
2622;SDS011;1321;48.690;9.022;2022-07-10T00:05:07;2.27;;;2.07;;
2622;SDS011;1321;48.690;9.022;2022-07-10T00:07:46;2.70;;;2.40;;
2622;SDS011;1321;48.690;9.022;2022-07-10T00:10:16;2.67;;;1.80;;
2622;SDS011;1321;48.690;9.022;2022-07-10T00:12:46;2.33;;;2.23;;
2622;SDS011;1321;48.690;9.022;2022-07-10T00:15:15;2.80;;;2.30;;
2622;SDS011;1321;48.690;9.022;2022-07-10T00:17:44;2.30;;;2.10;;
2622;SDS011;1321;48.690;9.022;2022-07-10T00:20:13;2.13;;;2.00;;
2622;SDS011;1321;48.690;9.022;2022-07-10T00:22:41;1.60;;;1.50;;
2622;SDS011;1321;48.690;9.022;2022-07-10T00:25:12;2.30;;;2.10;;
2622;SDS011;1321;48.690;9.022;2022-07-10T00:27:41;2.27;;;1.80;;
2622;SDS011;1321;48.690;9.022;2022-07-10T00:30:10;2.20;;;2.00;;
2622;SDS011;1321;48.690;9.022;2022-07-10T00:32:38;2.27;;;2.10;;
2622;SDS011;1321;48.690;9.022;2022-07-10T00:35:06;2.17;;;2.07;;
2622;SDS011;1321;48.690;9.022;2022-07-10T00:37:35;2.33;;;2.13;;
2622;SDS011;1321;48.690;9.022;2022-07-10T00:40:04;2.77;;;2.43;;
2622;SDS011;1321;48.690;9.022;2022-07-10T00:42:35;2.10;;;2.00;;
2622;SDS011;1321;48.690;9.022;2022-07-10T00:45:03;2.30;;;2.10;;
2622;SDS011;1321;48.690;9.022;2022-07-10T00:47:32;2.47;;;2.00;;
2622;SDS011;1321;48.690;9.022;2022-07-10T00:50:01;2.00;;;1.87;;
2622;SDS011;1321;48.690;9.022;2022-07-10T00:52:30;2.10;;;1.90;;
2622;SDS011;1321;48.690;9.022;2022-07-10T00:54:59;4.17;;;2.50;;
2622;SDS011;1321;48.690;9.022;2022-07-10T00:57:28;2.47;;;2.00;;
2622;SDS011;1321;48.690;9.022;2022-07-10T00:59:57;1.87;;;1.77;;
2622;SDS011;1321;48.690;9.022;2022-07-10T01:02:26;2.30;;;2.20;;
2622;SDS011;1321;48.690;9.022;2022-07-10T01:04:56;1.97;;;1.87;;
2622;SDS011;1321;48.690;9.022;2022-07-10T01:07:24;2.70;;;2.50;;
2622;SDS011;1321;48.690;9.022;2022-07-10T01:09:53;2.37;;;2.10;;
2622;SDS011;1321;48.690;9.022;2022-07-10T01:12:23;2.20;;;2.00;;
2622;SDS011;1321;48.690;9.022;2022-07-10T01:14:51;3.13;;;1.87;;
2622;SDS011;1321;48.690;9.022;2022-07-10T01:17:21;2.60;;;2.40;;
2622;SDS011;1321;48.690;9.022;2022-07-10T01:19:50;2.23;;;2.03;;
2622;SDS011;1321;48.690;9.022;2022-07-10T01:22:20;2.57;;;2.37;;
2622;SDS011;1321;48.690;9.022;2022-07-10T01:24:48;2.40;;;2.20;;
2622;SDS011;1321;48.690;9.022;2022-07-10T01:27:17;2.67;;;2.33;;
2622;SDS011;1321;48.690;9.022;2022-07-10T01:29:46;3.30;;;2.23;;
2622;SDS011;1321;48.690;9.022;2022-07-10T01:32:15;2.07;;;1.93;;
2622;SDS011;1321;48.690;9.022;2022-07-10T01:34:43;3.10;;;2.67;;
2622;SDS011;1321;48.690;9.022;2022-07-10T01:37:13;2.70;;;2.50;;
2622;SDS011;1321;48.690;9.022;2022-07-10T01:39:43;2.77;;;2.53;;
2622;SDS011;1321;48.690;9.022;2022-07-10T01:42:11;2.67;;;2.47;;
2622;SDS011;1321;48.690;9.022;2022-07-10T01:44:40;2.20;;;2.00;;
2622;SDS011;1321;48.690;9.022;2022-07-10T01:47:08;2.30;;;2.20;;
2622;SDS011;1321;48.690;9.022;2022-07-10T01:49:36;3.30;;;2.37;;
2622;SDS011;1321;48.690;9.022;2022-07-10T01:52:04;2.60;;;2.40;;
2622;SDS011;1321;48.690;9.022;2022-07-10T01:54:33;2.60;;;2.40;;
2622;SDS011;1321;48.690;9.022;2022-07-10T01:57:03;2.90;;;2.70;;
2622;SDS011;1321;48.690;9.022;2022-07-10T01:59:32;3.00;;;2.80;;
2622;SDS011;1321;48.690;9.022;2022-07-10T02:02:00;3.03;;;2.73;;
2622;SDS011;1321;48.690;9.022;2022-07-10T02:04:29;3.33;;;3.13;;
2622;SDS011;1321;48.690;9.022;2022-07-10T02:07:08;3.60;;;2.53;;
2622;SDS011;1321;48.690;9.022;2022-07-10T02:09:37;3.37;;;2.73;;
2622;SDS011;1321;48.690;9.022;2022-07-10T02:12:08;2.93;;;2.73;;
2622;SDS011;1321;48.690;9.022;2022-07-10T02:14:37;2.90;;;2.80;;
2622;SDS011;1321;48.690;9.022;2022-07-10T02:17:06;3.03;;;2.83;;
2622;SDS011;1321;48.690;9.022;2022-07-10T02:19:35;3.90;;;3.60;;
2622;SDS011;1321;48.690;9.022;2022-07-10T02:22:03;4.87;;;3.50;;
2622;SDS011;1321;48.690;9.022;2022-07-10T02:24:32;3.60;;;3.20;;
2622;SDS011;1321;48.690;9.022;2022-07-10T02:27:00;3.33;;;3.10;;
2622;SDS011;1321;48.690;9.022;2022-07-10T02:29:30;3.70;;;3.40;;
2622;SDS011;1321;48.690;9.022;2022-07-10T02:31:58;4.70;;;3.73;;
2622;SDS011;1321;48.690;9.022;2022-07-10T02:34:27;3.40;;;3.20;;
2622;SDS011;1321;48.690;9.022;2022-07-10T02:36:55;3.60;;;3.30;;
2622;SDS011;1321;48.690;9.022;2022-07-10T02:39:24;3.97;;;3.67;;
2622;SDS011;1321;48.690;9.022;2022-07-10T02:41:52;3.50;;;3.20;;
2622;SDS011;1321;48.690;9.022;2022-07-10T02:44:20;4.30;;;3.33;;
2622;SDS011;1321;48.690;9.022;2022-07-10T02:46:50;4.17;;;3.87;;
2622;SDS011;1321;48.690;9.022;2022-07-10T02:49:18;5.40;;;4.40;;
2622;SDS011;1321;48.690;9.022;2022-07-10T02:51:54;4.80;;;4.40;;
2622;SDS011;1321;48.690;9.022;2022-07-10T02:54:22;6.30;;;5.57;;
2622;SDS011;1321;48.690;9.022;2022-07-10T02:56:51;5.13;;;4.37;;
2622;SDS011;1321;48.690;9.022;2022-07-10T02:59:19;6.20;;;5.70;;
2622;SDS011;1321;48.690;9.022;2022-07-10T03:01:47;5.03;;;4.53;;
2622;SDS011;1321;48.690;9.022;2022-07-10T03:04:17;6.77;;;5.97;;
2622;SDS011;1321;48.690;9.022;2022-07-10T03:06:45;5.90;;;5.40;;
2622;SDS011;1321;48.690;9.022;2022-07-10T03:09:14;5.60;;;5.10;;
2622;SDS011;1321;48.690;9.022;2022-07-10T03:11:43;6.80;;;6.17;;
2622;SDS011;1321;48.690;9.022;2022-07-10T03:14:11;6.23;;;5.63;;
2622;SDS011;1321;48.690;9.022;2022-07-10T03:16:40;6.13;;;5.60;;
2622;SDS011;1321;48.690;9.022;2022-07-10T03:19:09;5.93;;;5.43;;
2622;SDS011;1321;48.690;9.022;2022-07-10T03:21:38;7.17;;;6.47;;
2622;SDS011;1321;48.690;9.022;2022-07-10T03:24:07;6.17;;;5.60;;
2622;SDS011;1321;48.690;9.022;2022-07-10T03:26:35;7.20;;;6.33;;
2622;SDS011;1321;48.690;9.022;2022-07-10T03:29:03;6.90;;;6.30;;
2622;SDS011;1321;48.690;9.022;2022-07-10T03:31:32;7.10;;;6.00;;
2622;SDS011;1321;48.690;9.022;2022-07-10T03:34:00;7.40;;;6.70;;
2622;SDS011;1321;48.690;9.022;2022-07-10T03:36:31;6.40;;;5.90;;
2622;SDS011;1321;48.690;9.022;2022-07-10T03:38:59;7.03;;;6.43;;
2622;SDS011;1321;48.690;9.022;2022-07-10T03:41:27;6.43;;;5.83;;
2622;SDS011;1321;48.690;9.022;2022-07-10T03:43:56;6.30;;;5.70;;
2622;SDS011;1321;48.690;9.022;2022-07-10T03:46:24;6.90;;;6.20;;
2622;SDS011;1321;48.690;9.022;2022-07-10T03:48:52;6.70;;;5.47;;
2622;SDS011;1321;48.690;9.022;2022-07-10T03:51:20;6.50;;;5.60;;
2622;SDS011;1321;48.690;9.022;2022-07-10T03:53:50;7.80;;;5.77;;
2622;SDS011;1321;48.690;9.022;2022-07-10T03:56:18;5.97;;;5.40;;
2622;SDS011;1321;48.690;9.022;2022-07-10T03:59:01;6.27;;;5.53;;
2622;SDS011;1321;48.690;9.022;2022-07-10T04:01:29;6.10;;;5.50;;
2622;SDS011;1321;48.690;9.022;2022-07-10T04:03:57;6.33;;;5.83;;
2622;SDS011;1321;48.690;9.022;2022-07-10T04:06:27;5.80;;;5.30;;
2622;SDS011;1321;48.690;9.022;2022-07-10T04:08:57;6.07;;;5.57;;
2622;SDS011;1321;48.690;9.022;2022-07-10T04:11:25;5.57;;;5.17;;
2622;SDS011;1321;48.690;9.022;2022-07-10T04:13:53;6.53;;;5.93;;
2622;SDS011;1321;48.690;9.022;2022-07-10T04:16:22;5.20;;;4.80;;
2622;SDS011;1321;48.690;9.022;2022-07-10T04:18:50;5.40;;;4.90;;
2622;SDS011;1321;48.690;9.022;2022-07-10T04:21:19;5.60;;;5.20;;
2622;SDS011;1321;48.690;9.022;2022-07-10T04:23:47;4.70;;;4.30;;
2622;SDS011;1321;48.690;9.022;2022-07-10T04:26:17;5.40;;;4.90;;
2622;SDS011;1321;48.690;9.022;2022-07-10T04:28:45;5.10;;;4.70;;
2622;SDS011;1321;48.690;9.022;2022-07-10T04:31:14;6.50;;;5.63;;
2622;SDS011;1321;48.690;9.022;2022-07-10T04:33:42;4.50;;;4.10;;
2622;SDS011;1321;48.690;9.022;2022-07-10T04:36:10;4.67;;;3.90;;
2622;SDS011;1321;48.690;9.022;2022-07-10T04:38:39;4.27;;;3.97;;
2622;SDS011;1321;48.690;9.022;2022-07-10T04:41:07;4.40;;;3.40;;
2622;SDS011;1321;48.690;9.022;2022-07-10T04:43:37;4.60;;;4.20;;
2622;SDS011;1321;48.690;9.022;2022-07-10T04:46:05;4.70;;;4.27;;
2622;SDS011;1321;48.690;9.022;2022-07-10T04:48:34;3.40;;;3.10;;
2622;SDS011;1321;48.690;9.022;2022-07-10T04:51:04;4.10;;;3.70;;
2622;SDS011;1321;48.690;9.022;2022-07-10T04:53:32;4.70;;;4.30;;
2622;SDS011;1321;48.690;9.022;2022-07-10T04:56:00;5.03;;;4.53;;
2622;SDS011;1321;48.690;9.022;2022-07-10T04:58:29;5.50;;;3.40;;
2622;SDS011;1321;48.690;9.022;2022-07-10T05:00:58;3.60;;;3.30;;
2622;SDS011;1321;48.690;9.022;2022-07-10T05:03:27;3.77;;;3.40;;
2622;SDS011;1321;48.690;9.022;2022-07-10T05:05:56;3.43;;;2.80;;
2622;SDS011;1321;48.690;9.022;2022-07-10T05:08:24;3.47;;;3.17;;
2622;SDS011;1321;48.690;9.022;2022-07-10T05:10:53;3.50;;;3.20;;
2622;SDS011;1321;48.690;9.022;2022-07-10T05:13:21;4.20;;;3.40;;
2622;SDS011;1321;48.690;9.022;2022-07-10T05:15:50;5.30;;;2.77;;
2622;SDS011;1321;48.690;9.022;2022-07-10T05:18:20;3.20;;;2.90;;
2622;SDS011;1321;48.690;9.022;2022-07-10T05:20:49;3.40;;;3.10;;
2622;SDS011;1321;48.690;9.022;2022-07-10T05:23:17;3.50;;;3.20;;
2622;SDS011;1321;48.690;9.022;2022-07-10T05:25:46;4.37;;;2.90;;
2622;SDS011;1321;48.690;9.022;2022-07-10T05:28:14;5.00;;;2.80;;
2622;SDS011;1321;48.690;9.022;2022-07-10T05:30:42;3.80;;;2.50;;
2622;SDS011;1321;48.690;9.022;2022-07-10T05:33:11;3.10;;;2.90;;
2622;SDS011;1321;48.690;9.022;2022-07-10T05:35:41;2.60;;;2.00;;
2622;SDS011;1321;48.690;9.022;2022-07-10T05:38:09;2.60;;;2.40;;
2622;SDS011;1321;48.690;9.022;2022-07-10T05:40:38;3.03;;;2.63;;
2622;SDS011;1321;48.690;9.022;2022-07-10T05:43:06;2.30;;;2.10;;
2622;SDS011;1321;48.690;9.022;2022-07-10T05:45:36;7.00;;;2.17;;
2622;SDS011;1321;48.690;9.022;2022-07-10T05:48:12;2.27;;;2.07;;
2622;SDS011;1321;48.690;9.022;2022-07-10T05:50:42;2.10;;;2.00;;
2622;SDS011;1321;48.690;9.022;2022-07-10T05:53:10;3.23;;;1.87;;
2622;SDS011;1321;48.690;9.022;2022-07-10T05:55:39;2.50;;;2.10;;
2622;SDS011;1321;48.690;9.022;2022-07-10T05:58:07;2.33;;;1.70;;
2622;SDS011;1321;48.690;9.022;2022-07-10T06:00:36;2.90;;;2.00;;
2622;SDS011;1321;48.690;9.022;2022-07-10T06:03:05;3.23;;;1.60;;
2622;SDS011;1321;48.690;9.022;2022-07-10T06:05:33;3.20;;;1.60;;
2622;SDS011;1321;48.690;9.022;2022-07-10T06:08:03;2.30;;;1.67;;
2622;SDS011;1321;48.690;9.022;2022-07-10T06:10:32;1.60;;;1.50;;
2622;SDS011;1321;48.690;9.022;2022-07-10T06:13:01;3.23;;;1.70;;
2622;SDS011;1321;48.690;9.022;2022-07-10T06:15:30;1.53;;;1.20;;
2622;SDS011;1321;48.690;9.022;2022-07-10T06:17:59;1.40;;;1.30;;
2622;SDS011;1321;48.690;9.022;2022-07-10T06:20:28;1.30;;;1.20;;
2622;SDS011;1321;48.690;9.022;2022-07-10T06:22:57;1.43;;;1.33;;
2622;SDS011;1321;48.690;9.022;2022-07-10T06:25:28;1.80;;;1.30;;
2622;SDS011;1321;48.690;9.022;2022-07-10T06:27:57;2.47;;;1.30;;
2622;SDS011;1321;48.690;9.022;2022-07-10T06:30:26;1.83;;;1.30;;
2622;SDS011;1321;48.690;9.022;2022-07-10T06:32:54;1.53;;;1.23;;
2622;SDS011;1321;48.690;9.022;2022-07-10T06:35:23;1.40;;;1.27;;
2622;SDS011;1321;48.690;9.022;2022-07-10T06:37:51;2.10;;;1.40;;
2622;SDS011;1321;48.690;9.022;2022-07-10T06:40:20;1.67;;;1.40;;
2622;SDS011;1321;48.690;9.022;2022-07-10T06:42:51;3.70;;;1.77;;
2622;SDS011;1321;48.690;9.022;2022-07-10T06:45:20;1.83;;;1.73;;
2622;SDS011;1321;48.690;9.022;2022-07-10T06:47:49;2.23;;;1.37;;
2622;SDS011;1321;48.690;9.022;2022-07-10T06:50:24;2.60;;;1.60;;
2622;SDS011;1321;48.690;9.022;2022-07-10T06:52:56;2.67;;;1.30;;
2622;SDS011;1321;48.690;9.022;2022-07-10T06:55:25;1.47;;;1.37;;
2622;SDS011;1321;48.690;9.022;2022-07-10T06:57:55;1.80;;;1.20;;
2622;SDS011;1321;48.690;9.022;2022-07-10T07:00:24;1.63;;;1.20;;
2622;SDS011;1321;48.690;9.022;2022-07-10T07:02:54;1.43;;;1.30;;
2622;SDS011;1321;48.690;9.022;2022-07-10T07:05:24;2.33;;;1.50;;
2622;SDS011;1321;48.690;9.022;2022-07-10T07:07:53;1.97;;;1.20;;
2622;SDS011;1321;48.690;9.022;2022-07-10T07:10:22;2.00;;;1.20;;
2622;SDS011;1321;48.690;9.022;2022-07-10T07:12:51;2.60;;;1.00;;
2622;SDS011;1321;48.690;9.022;2022-07-10T07:15:22;1.23;;;1.13;;
2622;SDS011;1321;48.690;9.022;2022-07-10T07:17:51;2.03;;;1.43;;
2622;SDS011;1321;48.690;9.022;2022-07-10T07:20:35;1.60;;;1.00;;
2622;SDS011;1321;48.690;9.022;2022-07-10T07:23:21;1.50;;;1.00;;
2622;SDS011;1321;48.690;9.022;2022-07-10T07:25:51;1.60;;;1.17;;
2622;SDS011;1321;48.690;9.022;2022-07-10T07:28:22;1.50;;;1.07;;
2622;SDS011;1321;48.690;9.022;2022-07-10T07:30:53;2.17;;;1.30;;
2622;SDS011;1321;48.690;9.022;2022-07-10T07:33:22;3.47;;;1.50;;
2622;SDS011;1321;48.690;9.022;2022-07-10T07:35:52;1.50;;;1.37;;
2622;SDS011;1321;48.690;9.022;2022-07-10T07:38:21;1.60;;;1.00;;
2622;SDS011;1321;48.690;9.022;2022-07-10T07:40:51;1.20;;;1.10;;
2622;SDS011;1321;48.690;9.022;2022-07-10T07:43:20;1.50;;;1.10;;
2622;SDS011;1321;48.690;9.022;2022-07-10T07:45:50;1.53;;;1.10;;
2622;SDS011;1321;48.690;9.022;2022-07-10T07:48:21;1.13;;;1.03;;
2622;SDS011;1321;48.690;9.022;2022-07-10T07:50:50;0.83;;;0.83;;
2622;SDS011;1321;48.690;9.022;2022-07-10T07:53:20;7.17;;;3.47;;
2622;SDS011;1321;48.690;9.022;2022-07-10T07:55:51;4.17;;;1.60;;
2622;SDS011;1321;48.690;9.022;2022-07-10T07:58:21;2.10;;;1.37;;
2622;SDS011;1321;48.690;9.022;2022-07-10T08:00:52;1.00;;;0.90;;
2622;SDS011;1321;48.690;9.022;2022-07-10T08:03:23;1.10;;;1.00;;
2622;SDS011;1321;48.690;9.022;2022-07-10T08:06:13;4.90;;;1.33;;
2622;SDS011;1321;48.690;9.022;2022-07-10T08:08:42;0.80;;;0.80;;
2622;SDS011;1321;48.690;9.022;2022-07-10T08:11:12;1.40;;;1.30;;
2622;SDS011;1321;48.690;9.022;2022-07-10T08:13:42;1.83;;;1.00;;
2622;SDS011;1321;48.690;9.022;2022-07-10T08:16:12;1.27;;;1.17;;
2622;SDS011;1321;48.690;9.022;2022-07-10T08:18:41;2.37;;;1.70;;
2622;SDS011;1321;48.690;9.022;2022-07-10T08:21:10;2.37;;;1.00;;
2622;SDS011;1321;48.690;9.022;2022-07-10T08:23:40;1.57;;;0.80;;
2622;SDS011;1321;48.690;9.022;2022-07-10T08:26:09;1.03;;;0.70;;
2622;SDS011;1321;48.690;9.022;2022-07-10T08:28:39;1.20;;;1.10;;
2622;SDS011;1321;48.690;9.022;2022-07-10T08:31:09;1.70;;;1.20;;
2622;SDS011;1321;48.690;9.022;2022-07-10T08:33:41;1.27;;;1.17;;
2622;SDS011;1321;48.690;9.022;2022-07-10T08:36:11;1.47;;;1.13;;
2622;SDS011;1321;48.690;9.022;2022-07-10T08:39:01;1.37;;;1.27;;
2622;SDS011;1321;48.690;9.022;2022-07-10T08:41:31;0.83;;;0.83;;
2622;SDS011;1321;48.690;9.022;2022-07-10T08:44:03;1.17;;;1.07;;
2622;SDS011;1321;48.690;9.022;2022-07-10T08:46:34;3.33;;;0.90;;
2622;SDS011;1321;48.690;9.022;2022-07-10T08:49:05;2.00;;;1.90;;
2622;SDS011;1321;48.690;9.022;2022-07-10T08:51:40;1.00;;;0.90;;
2622;SDS011;1321;48.690;9.022;2022-07-10T08:54:15;1.93;;;1.13;;
2622;SDS011;1321;48.690;9.022;2022-07-10T08:56:48;1.40;;;1.30;;
2622;SDS011;1321;48.690;9.022;2022-07-10T08:59:19;1.33;;;1.10;;
2622;SDS011;1321;48.690;9.022;2022-07-10T09:01:58;1.20;;;1.10;;
2622;SDS011;1321;48.690;9.022;2022-07-10T09:04:28;1.37;;;1.27;;
2622;SDS011;1321;48.690;9.022;2022-07-10T09:06:58;1.23;;;1.13;;
2622;SDS011;1321;48.690;9.022;2022-07-10T09:09:27;1.23;;;1.00;;
2622;SDS011;1321;48.690;9.022;2022-07-10T09:11:57;1.33;;;0.90;;
2622;SDS011;1321;48.690;9.022;2022-07-10T09:14:27;1.73;;;1.07;;
2622;SDS011;1321;48.690;9.022;2022-07-10T09:17:03;2.93;;;1.20;;
2622;SDS011;1321;48.690;9.022;2022-07-10T09:19:32;1.50;;;1.40;;
2622;SDS011;1321;48.690;9.022;2022-07-10T09:22:04;1.20;;;1.10;;
2622;SDS011;1321;48.690;9.022;2022-07-10T09:24:36;3.03;;;1.13;;
2622;SDS011;1321;48.690;9.022;2022-07-10T09:27:07;2.50;;;1.00;;
2622;SDS011;1321;48.690;9.022;2022-07-10T09:29:44;1.30;;;1.20;;
2622;SDS011;1321;48.690;9.022;2022-07-10T09:32:17;2.53;;;1.20;;
2622;SDS011;1321;48.690;9.022;2022-07-10T09:34:48;2.60;;;1.13;;
2622;SDS011;1321;48.690;9.022;2022-07-10T09:37:39;1.40;;;1.30;;
2622;SDS011;1321;48.690;9.022;2022-07-10T09:40:10;1.37;;;1.20;;
2622;SDS011;1321;48.690;9.022;2022-07-10T09:42:40;1.40;;;1.30;;
2622;SDS011;1321;48.690;9.022;2022-07-10T09:45:18;1.67;;;1.23;;
2622;SDS011;1321;48.690;9.022;2022-07-10T09:47:57;1.60;;;1.50;;
2622;SDS011;1321;48.690;9.022;2022-07-10T09:50:30;1.77;;;1.20;;
2622;SDS011;1321;48.690;9.022;2022-07-10T09:53:01;1.70;;;1.60;;
2622;SDS011;1321;48.690;9.022;2022-07-10T09:55:31;1.20;;;1.10;;
2622;SDS011;1321;48.690;9.022;2022-07-10T09:58:02;1.10;;;1.00;;
2622;SDS011;1321;48.690;9.022;2022-07-10T10:00:33;2.63;;;1.60;;
2622;SDS011;1321;48.690;9.022;2022-07-10T10:03:05;1.77;;;1.37;;
2622;SDS011;1321;48.690;9.022;2022-07-10T10:05:37;1.57;;;1.40;;
2622;SDS011;1321;48.690;9.022;2022-07-10T10:08:09;2.20;;;1.33;;
2622;SDS011;1321;48.690;9.022;2022-07-10T10:10:43;4.03;;;1.80;;
2622;SDS011;1321;48.690;9.022;2022-07-10T10:13:15;1.80;;;1.47;;
2622;SDS011;1321;48.690;9.022;2022-07-10T10:15:46;4.60;;;1.20;;
2622;SDS011;1321;48.690;9.022;2022-07-10T10:18:18;2.40;;;1.37;;
2622;SDS011;1321;48.690;9.022;2022-07-10T10:20:49;1.40;;;1.30;;
2622;SDS011;1321;48.690;9.022;2022-07-10T10:23:20;1.30;;;1.20;;
2622;SDS011;1321;48.690;9.022;2022-07-10T10:25:51;1.73;;;1.20;;
2622;SDS011;1321;48.690;9.022;2022-07-10T10:28:21;1.83;;;1.30;;
2622;SDS011;1321;48.690;9.022;2022-07-10T10:30:51;1.23;;;1.10;;
2622;SDS011;1321;48.690;9.022;2022-07-10T10:36:14;1.47;;;1.00;;
2622;SDS011;1321;48.690;9.022;2022-07-10T10:39:03;1.37;;;1.03;;
2622;SDS011;1321;48.690;9.022;2022-07-10T10:41:44;1.40;;;1.30;;
2622;SDS011;1321;48.690;9.022;2022-07-10T10:44:22;1.23;;;1.10;;
2622;SDS011;1321;48.690;9.022;2022-07-10T10:46:53;1.13;;;1.03;;
2622;SDS011;1321;48.690;9.022;2022-07-10T10:52:32;1.10;;;1.00;;
2622;SDS011;1321;48.690;9.022;2022-07-10T10:55:04;2.17;;;1.10;;
2622;SDS011;1321;48.690;9.022;2022-07-10T10:57:39;1.87;;;1.20;;
2622;SDS011;1321;48.690;9.022;2022-07-10T11:00:15;1.47;;;1.10;;
2622;SDS011;1321;48.690;9.022;2022-07-10T11:03:13;1.20;;;1.10;;
2622;SDS011;1321;48.690;9.022;2022-07-10T11:05:44;1.60;;;1.20;;
2622;SDS011;1321;48.690;9.022;2022-07-10T11:08:34;3.70;;;1.50;;
2622;SDS011;1321;48.690;9.022;2022-07-10T11:14:09;1.73;;;1.20;;
2622;SDS011;1321;48.690;9.022;2022-07-10T11:16:48;1.30;;;1.20;;
2622;SDS011;1321;48.690;9.022;2022-07-10T11:19:20;0.80;;;0.80;;
2622;SDS011;1321;48.690;9.022;2022-07-10T11:21:52;1.50;;;1.10;;
2622;SDS011;1321;48.690;9.022;2022-07-10T11:24:48;1.13;;;1.03;;
2622;SDS011;1321;48.690;9.022;2022-07-10T11:27:28;2.80;;;1.30;;
2622;SDS011;1321;48.690;9.022;2022-07-10T11:30:09;4.90;;;1.30;;
2622;SDS011;1321;48.690;9.022;2022-07-10T11:32:38;1.67;;;0.90;;
2622;SDS011;1321;48.690;9.022;2022-07-10T11:35:10;2.83;;;1.00;;
2622;SDS011;1321;48.690;9.022;2022-07-10T11:37:48;0.93;;;0.90;;
2622;SDS011;1321;48.690;9.022;2022-07-10T11:40:19;1.60;;;0.90;;
2622;SDS011;1321;48.690;9.022;2022-07-10T11:42:49;1.87;;;0.90;;
2622;SDS011;1321;48.690;9.022;2022-07-10T11:45:28;1.93;;;1.20;;
2622;SDS011;1321;48.690;9.022;2022-07-10T11:47:57;2.30;;;0.80;;
2622;SDS011;1321;48.690;9.022;2022-07-10T11:50:27;1.27;;;0.80;;
2622;SDS011;1321;48.690;9.022;2022-07-10T11:53:01;0.87;;;0.87;;
2622;SDS011;1321;48.690;9.022;2022-07-10T11:55:33;2.70;;;1.23;;
2622;SDS011;1321;48.690;9.022;2022-07-10T11:58:13;0.90;;;0.90;;
2622;SDS011;1321;48.690;9.022;2022-07-10T12:00:43;0.80;;;0.80;;
2622;SDS011;1321;48.690;9.022;2022-07-10T12:03:16;1.77;;;1.10;;
2622;SDS011;1321;48.690;9.022;2022-07-10T12:05:54;2.10;;;0.97;;
2622;SDS011;1321;48.690;9.022;2022-07-10T12:08:22;2.50;;;0.80;;
2622;SDS011;1321;48.690;9.022;2022-07-10T12:10:52;1.23;;;1.00;;
2622;SDS011;1321;48.690;9.022;2022-07-10T12:13:21;1.73;;;0.80;;
2622;SDS011;1321;48.690;9.022;2022-07-10T12:15:50;0.70;;;0.70;;
2622;SDS011;1321;48.690;9.022;2022-07-10T12:18:20;1.13;;;0.90;;
2622;SDS011;1321;48.690;9.022;2022-07-10T12:20:49;0.90;;;0.80;;
2622;SDS011;1321;48.690;9.022;2022-07-10T12:23:19;2.50;;;0.90;;
2622;SDS011;1321;48.690;9.022;2022-07-10T12:25:49;2.00;;;1.80;;
2622;SDS011;1321;48.690;9.022;2022-07-10T12:28:19;0.70;;;0.70;;
2622;SDS011;1321;48.690;9.022;2022-07-10T12:30:48;0.80;;;0.80;;
2622;SDS011;1321;48.690;9.022;2022-07-10T12:33:19;1.90;;;0.80;;
2622;SDS011;1321;48.690;9.022;2022-07-10T12:35:49;0.90;;;0.70;;
2622;SDS011;1321;48.690;9.022;2022-07-10T12:38:19;0.60;;;0.60;;
2622;SDS011;1321;48.690;9.022;2022-07-10T12:40:49;1.27;;;0.77;;
2622;SDS011;1321;48.690;9.022;2022-07-10T12:43:26;0.70;;;0.70;;
2622;SDS011;1321;48.690;9.022;2022-07-10T12:46:08;1.03;;;0.87;;
2622;SDS011;1321;48.690;9.022;2022-07-10T12:48:42;1.90;;;0.97;;
2622;SDS011;1321;48.690;9.022;2022-07-10T12:51:22;1.20;;;0.80;;
2622;SDS011;1321;48.690;9.022;2022-07-10T12:53:50;0.70;;;0.70;;
2622;SDS011;1321;48.690;9.022;2022-07-10T12:56:28;1.67;;;0.80;;
2622;SDS011;1321;48.690;9.022;2022-07-10T12:58:59;1.80;;;0.67;;
2622;SDS011;1321;48.690;9.022;2022-07-10T13:01:28;1.57;;;0.63;;
2622;SDS011;1321;48.690;9.022;2022-07-10T13:04:06;1.00;;;0.80;;
2622;SDS011;1321;48.690;9.022;2022-07-10T13:06:37;0.80;;;0.80;;
2622;SDS011;1321;48.690;9.022;2022-07-10T13:09:17;0.60;;;0.60;;
2622;SDS011;1321;48.690;9.022;2022-07-10T13:11:46;1.03;;;0.60;;
2622;SDS011;1321;48.690;9.022;2022-07-10T13:14:16;1.10;;;0.60;;
2622;SDS011;1321;48.690;9.022;2022-07-10T13:16:45;0.73;;;0.73;;
2622;SDS011;1321;48.690;9.022;2022-07-10T13:19:13;1.50;;;0.53;;
2622;SDS011;1321;48.690;9.022;2022-07-10T13:21:42;0.70;;;0.60;;
2622;SDS011;1321;48.690;9.022;2022-07-10T13:24:10;1.13;;;0.60;;
2622;SDS011;1321;48.690;9.022;2022-07-10T13:26:38;0.60;;;0.60;;
2622;SDS011;1321;48.690;9.022;2022-07-10T13:29:06;0.60;;;0.60;;
2622;SDS011;1321;48.690;9.022;2022-07-10T13:31:36;1.60;;;0.60;;
2622;SDS011;1321;48.690;9.022;2022-07-10T13:34:04;0.80;;;0.80;;
2622;SDS011;1321;48.690;9.022;2022-07-10T13:36:33;0.63;;;0.63;;
2622;SDS011;1321;48.690;9.022;2022-07-10T13:39:01;1.43;;;0.50;;
2622;SDS011;1321;48.690;9.022;2022-07-10T13:41:30;1.13;;;0.70;;
2622;SDS011;1321;48.690;9.022;2022-07-10T13:43:58;0.53;;;0.50;;
2622;SDS011;1321;48.690;9.022;2022-07-10T13:46:27;1.00;;;0.50;;
2622;SDS011;1321;48.690;9.022;2022-07-10T13:48:57;0.70;;;0.63;;
2622;SDS011;1321;48.690;9.022;2022-07-10T13:51:26;1.10;;;0.67;;
2622;SDS011;1321;48.690;9.022;2022-07-10T13:53:54;1.37;;;0.60;;
2622;SDS011;1321;48.690;9.022;2022-07-10T13:56:22;1.33;;;0.50;;
2622;SDS011;1321;48.690;9.022;2022-07-10T13:58:51;0.70;;;0.70;;
2622;SDS011;1321;48.690;9.022;2022-07-10T14:01:19;0.70;;;0.60;;
2622;SDS011;1321;48.690;9.022;2022-07-10T14:03:48;1.83;;;0.70;;
2622;SDS011;1321;48.690;9.022;2022-07-10T14:06:19;1.87;;;0.80;;
2622;SDS011;1321;48.690;9.022;2022-07-10T14:08:48;1.10;;;0.80;;
2622;SDS011;1321;48.690;9.022;2022-07-10T14:11:16;1.00;;;0.70;;
2622;SDS011;1321;48.690;9.022;2022-07-10T14:13:45;0.83;;;0.60;;
2622;SDS011;1321;48.690;9.022;2022-07-10T14:16:13;0.80;;;0.70;;
2622;SDS011;1321;48.690;9.022;2022-07-10T14:18:42;0.83;;;0.50;;
2622;SDS011;1321;48.690;9.022;2022-07-10T14:21:12;4.23;;;0.80;;
2622;SDS011;1321;48.690;9.022;2022-07-10T14:23:42;0.80;;;0.60;;
2622;SDS011;1321;48.690;9.022;2022-07-10T14:26:11;0.77;;;0.53;;
2622;SDS011;1321;48.690;9.022;2022-07-10T14:28:40;0.60;;;0.50;;
2622;SDS011;1321;48.690;9.022;2022-07-10T14:31:09;1.47;;;0.50;;
2622;SDS011;1321;48.690;9.022;2022-07-10T14:33:37;4.00;;;0.90;;
2622;SDS011;1321;48.690;9.022;2022-07-10T14:36:07;1.10;;;0.73;;
2622;SDS011;1321;48.690;9.022;2022-07-10T14:38:35;0.70;;;0.70;;
2622;SDS011;1321;48.690;9.022;2022-07-10T14:41:05;0.87;;;0.63;;
2622;SDS011;1321;48.690;9.022;2022-07-10T14:43:33;2.63;;;0.73;;
2622;SDS011;1321;48.690;9.022;2022-07-10T14:46:03;0.70;;;0.70;;
2622;SDS011;1321;48.690;9.022;2022-07-10T14:48:32;0.80;;;0.60;;
2622;SDS011;1321;48.690;9.022;2022-07-10T14:51:02;0.60;;;0.60;;
2622;SDS011;1321;48.690;9.022;2022-07-10T14:53:30;0.90;;;0.63;;
2622;SDS011;1321;48.690;9.022;2022-07-10T14:56:02;3.33;;;0.60;;
2622;SDS011;1321;48.690;9.022;2022-07-10T14:58:33;1.40;;;0.83;;
2622;SDS011;1321;48.690;9.022;2022-07-10T15:01:21;1.13;;;0.50;;
2622;SDS011;1321;48.690;9.022;2022-07-10T15:03:49;1.00;;;0.60;;
2622;SDS011;1321;48.690;9.022;2022-07-10T15:06:19;0.60;;;0.60;;
2622;SDS011;1321;48.690;9.022;2022-07-10T15:08:47;0.63;;;0.63;;
2622;SDS011;1321;48.690;9.022;2022-07-10T15:11:17;1.33;;;0.70;;
2622;SDS011;1321;48.690;9.022;2022-07-10T15:13:49;0.70;;;0.60;;
2622;SDS011;1321;48.690;9.022;2022-07-10T15:16:24;0.67;;;0.53;;
2622;SDS011;1321;48.690;9.022;2022-07-10T15:18:54;1.73;;;0.60;;
2622;SDS011;1321;48.690;9.022;2022-07-10T15:21:22;1.47;;;0.50;;
2622;SDS011;1321;48.690;9.022;2022-07-10T15:23:51;0.60;;;0.60;;
2622;SDS011;1321;48.690;9.022;2022-07-10T15:26:19;1.00;;;0.90;;
2622;SDS011;1321;48.690;9.022;2022-07-10T15:28:47;2.07;;;0.60;;
2622;SDS011;1321;48.690;9.022;2022-07-10T15:31:17;0.60;;;0.60;;
2622;SDS011;1321;48.690;9.022;2022-07-10T15:33:45;2.00;;;0.70;;
2622;SDS011;1321;48.690;9.022;2022-07-10T15:36:14;1.13;;;0.83;;
2622;SDS011;1321;48.690;9.022;2022-07-10T15:38:42;0.90;;;0.63;;
2622;SDS011;1321;48.690;9.022;2022-07-10T15:41:10;0.70;;;0.70;;
2622;SDS011;1321;48.690;9.022;2022-07-10T15:43:39;1.47;;;0.80;;